Terminal Aerodrome Forecast
Issued by NWS

Home | Current Version | Previous Version | Text Only | Print | Product List | Glossary On
Versions: 1 2 3 4 5 6 7 8 9 10 11 12 13 14 15
000
FTAK31 PAJN 191217 CCA
TAFASI
TAF COR
PASI 191217Z 1912/2012 10007KT P6SM VCSH FEW035 SCT040 OVC060
      TEMPO 1912/1915 2SM -SHSN BKN022 OVC030
     FM191500 10004KT P6SM OVC030
     FM191800 07004KT P6SM SCT035 BKN070
     FM192100 34004KT P6SM SCT070 BKN100
     FM200300 06004KT P6SM SKC=

USA.gov is the U.S. government's official web portal to all federal, state and local government web resources and services.